This is the latest recevied weather packets stored in our database for station/object G0TGD-10. If no packets are shown the sender has not sent any weather packets the latest 1 day(s).
| Time | Temp. | Humidity | Pressure | Rain* | Wind** | Luminosity | Snow |
|---|---|---|---|---|---|---|---|
| 1778098891 | 6.67° C | 67% | 1015.9 hPa | - | - | - | - |
| 1778097991 | 7.22° C | 67% | 1015.8 hPa | - | - | - | - |
| 1778097091 | 7.22° C | 66% | 1015.6 hPa | - | - | - | - |
| 1778088990 | 10° C | 63% | 1015.1 hPa | - | - | - | - |
| 1778088090 | 9.44° C | 63% | 1014.9 hPa | - | - | - | - |
| 1778087190 | 10° C | 63% | 1015 hPa | - | - | - | - |
| 1778079089 | 12.78° C | 60% | 1015.1 hPa | - | - | - | - |
| 1778078189 | 12.22° C | 60% | 1015.1 hPa | - | - | - | - |
| 1778077289 | 12.22° C | 60% | 1015 hPa | - | - | - | - |
| 1778069188 | 14.44° C | 60% | 1014.6 hPa | - | - | - | - |
| 1778068288 | 13.89° C | 59% | 1014.6 hPa | - | - | - | - |
| 1778067388 | 13.89° C | 59% | 1014.7 hPa | - | - | - | - |
| 1778061987 | 21.67° C | 54% | 1014.4 hPa | - | - | - | - |
| 1778061087 | 19.44° C | 56% | 1014.5 hPa | - | - | - | - |
| 1778060187 | 18.33° C | 58% | 1014.6 hPa | - | - | - | - |
| 1778059287 | 18.89° C | 56% | 1014.5 hPa | - | - | - | - |
| 1778058387 | 17.78° C | 59% | 1014.6 hPa | - | - | - | - |
| 1778057487 | 17.78° C | 61% | 1014.8 hPa | - | - | - | - |
| 1778052086 | 7.78° C | 69% | 1015.1 hPa | - | - | - | - |
| 1778051186 | 7.78° C | 69% | 1014.9 hPa | - | - | - | - |
| 1778050286 | 7.22° C | 70% | 1014.8 hPa | - | - | - | - |
| 1778049386 | 6.67° C | 70% | 1014.6 hPa | - | - | - | - |
| 1778048486 | 5.56° C | 70% | 1014.6 hPa | - | - | - | - |
| 1778047586 | 5.56° C | 70% | 1014.5 hPa | - | - | - | - |
| 1778045785 | 5° C | 70% | 1014.5 hPa | - | - | - | - |
* Rain since midnight (hover to see other rain measurements)
** Current wind speed in m/s (hover to see current wind gust speed)